createdAt,value
2023-01-26T00:01:21.160Z,59.46
2023-01-26T00:03:49.525Z,58.77
2023-01-26T00:06:18.828Z,58.90
2023-01-26T00:08:48.323Z,59.21
2023-01-26T00:11:18.509Z,59.26
2023-01-26T00:13:46.250Z,59.13
2023-01-26T00:16:14.767Z,59.34
2023-01-26T00:18:43.520Z,59.38
2023-01-26T00:21:15.867Z,59.42
2023-01-26T00:23:43.667Z,59.14
2023-01-26T00:26:14.434Z,59.16
2023-01-26T00:28:42.083Z,59.24
2023-01-26T00:31:18.247Z,59.27
2023-01-26T00:33:45.968Z,59.53
2023-01-26T00:36:13.707Z,58.94
2023-01-26T00:38:41.701Z,59.09
2023-01-26T00:41:09.548Z,59.14
2023-01-26T00:43:37.230Z,59.08
2023-01-26T00:46:04.828Z,59.90
2023-01-26T00:48:32.241Z,59.89
2023-01-26T00:51:00.761Z,59.81
2023-01-26T00:53:28.850Z,59.43
2023-01-26T00:55:58.109Z,59.39
2023-01-26T00:58:25.839Z,59.23
2023-01-26T01:00:53.590Z,59.87
2023-01-26T01:03:21.032Z,59.80
2023-01-26T01:05:48.656Z,59.94
2023-01-26T01:08:16.004Z,59.46
2023-01-26T01:10:43.579Z,59.75
2023-01-26T01:13:11.235Z,60.10
2023-01-26T01:15:40.440Z,59.77
2023-01-26T01:18:08.094Z,59.51
2023-01-26T01:20:35.769Z,59.76
2023-01-26T01:23:03.161Z,59.55
2023-01-26T01:25:30.590Z,59.80
2023-01-26T01:27:58.265Z,59.85
2023-01-26T01:30:25.660Z,60.28
2023-01-26T01:32:53.508Z,59.86
2023-01-26T01:35:21.202Z,60.12
2023-01-26T01:37:49.148Z,59.81
2023-01-26T01:40:16.492Z,59.80
2023-01-26T01:42:50.183Z,59.65
2023-01-26T01:45:26.466Z,59.81
2023-01-26T01:47:59.568Z,59.83
2023-01-26T01:50:27.581Z,60.16
2023-01-26T01:52:56.195Z,59.73
2023-01-26T01:55:25.585Z,59.45
2023-01-26T01:57:55.717Z,59.50
2023-01-26T02:00:24.286Z,59.46
2023-01-26T02:03:11.535Z,59.69
2023-01-26T02:05:50.928Z,59.85
2023-01-26T02:08:20.119Z,59.53
2023-01-26T02:10:49.767Z,59.65
2023-01-26T02:13:18.562Z,60.00
2023-01-26T02:15:46.879Z,60.06
2023-01-26T02:18:14.314Z,60.38
2023-01-26T02:20:55.557Z,60.45
2023-01-26T02:23:32.176Z,60.34
2023-01-26T02:26:20.481Z,60.68
2023-01-26T02:28:48.871Z,60.40
2023-01-26T02:31:17.724Z,59.88
2023-01-26T02:33:45.918Z,60.20
2023-01-26T02:36:21.884Z,60.12
2023-01-26T02:38:58.484Z,59.79
2023-01-26T02:41:44.748Z,59.69
2023-01-26T02:44:12.804Z,59.75
2023-01-26T02:46:40.672Z,59.91
2023-01-26T02:49:26.600Z,60.42
2023-01-26T02:51:54.352Z,60.34
2023-01-26T02:54:40.371Z,59.80
2023-01-26T02:57:08.389Z,59.74
2023-01-26T02:59:35.737Z,59.80
2023-01-26T03:02:03.221Z,59.87
2023-01-26T03:04:30.911Z,59.89
2023-01-26T03:06:58.393Z,59.74
2023-01-26T03:09:25.759Z,59.28
2023-01-26T03:11:53.403Z,59.25
2023-01-26T03:14:20.788Z,59.47
2023-01-26T03:16:49.757Z,59.08
2023-01-26T03:19:36.241Z,58.91
2023-01-26T03:22:24.780Z,58.72
2023-01-26T03:25:10.887Z,58.77
2023-01-26T03:27:44.712Z,59.34
2023-01-26T03:30:15.093Z,59.44
2023-01-26T03:32:43.551Z,59.28
2023-01-26T03:35:15.159Z,59.32
2023-01-26T03:37:46.641Z,58.84
2023-01-26T03:40:35.063Z,59.62
2023-01-26T03:43:26.304Z,59.57
2023-01-26T03:46:12.827Z,59.80
2023-01-26T03:48:59.305Z,59.79
2023-01-26T03:51:45.104Z,59.44
2023-01-26T03:54:31.746Z,58.90
2023-01-26T03:56:59.810Z,58.91
2023-01-26T03:59:39.881Z,59.80
2023-01-26T04:02:27.952Z,59.44
2023-01-26T04:05:14.852Z,59.16
2023-01-26T04:08:01.254Z,57.92
2023-01-26T04:10:29.337Z,58.12
2023-01-26T04:13:15.144Z,58.63
2023-01-26T04:16:02.021Z,58.31
2023-01-26T04:18:47.806Z,57.94
2023-01-26T04:21:33.422Z,58.24
2023-01-26T04:24:02.236Z,57.98
2023-01-26T04:26:37.604Z,57.85
2023-01-26T04:29:13.688Z,57.95
2023-01-26T04:31:42.381Z,57.60
2023-01-26T04:34:13.244Z,56.70
2023-01-26T04:36:42.181Z,55.87
2023-01-26T04:39:10.247Z,56.46
2023-01-26T04:41:40.107Z,57.12
2023-01-26T04:44:09.197Z,57.39
2023-01-26T04:46:36.674Z,57.12
2023-01-26T04:49:04.324Z,56.99
2023-01-26T04:51:32.125Z,57.23
2023-01-26T04:53:59.565Z,56.64
2023-01-26T04:56:30.178Z,56.75
2023-01-26T04:59:06.196Z,56.51
2023-01-26T05:01:34.243Z,56.73
2023-01-26T05:04:04.350Z,56.54
2023-01-26T05:06:32.845Z,56.45
2023-01-26T05:09:00.281Z,56.38
2023-01-26T05:11:28.066Z,56.13
2023-01-26T05:13:55.609Z,56.37
2023-01-26T05:16:23.177Z,56.51
2023-01-26T05:18:51.045Z,56.49
2023-01-26T05:21:18.603Z,56.79
2023-01-26T05:23:46.141Z,56.61
2023-01-26T05:26:14.447Z,55.99
2023-01-26T05:28:43.517Z,55.86
2023-01-26T05:31:11.003Z,56.19
2023-01-26T05:33:38.752Z,56.22
2023-01-26T05:36:08.193Z,56.52
2023-01-26T05:38:35.894Z,56.48
2023-01-26T05:41:04.031Z,56.76
2023-01-26T05:43:33.524Z,56.46
2023-01-26T05:46:04.153Z,56.35
2023-01-26T05:48:31.723Z,56.46
2023-01-26T05:50:59.156Z,56.37
2023-01-26T05:53:26.978Z,56.20
2023-01-26T05:55:54.577Z,56.41
2023-01-26T05:58:22.200Z,56.17
2023-01-26T06:00:49.972Z,56.35
2023-01-26T06:03:19.058Z,56.36
2023-01-26T06:05:53.757Z,56.31
2023-01-26T06:08:22.136Z,56.26
2023-01-26T06:10:49.870Z,56.13
2023-01-26T06:13:17.340Z,56.23
2023-01-26T06:15:45.052Z,56.30
2023-01-26T06:18:12.612Z,56.24
2023-01-26T06:20:44.202Z,56.23
2023-01-26T06:23:12.617Z,55.78
2023-01-26T06:25:40.369Z,55.75
2023-01-26T06:28:08.092Z,55.72
2023-01-26T06:30:36.061Z,55.90
2023-01-26T06:33:06.927Z,55.54
2023-01-26T06:35:36.037Z,55.57
2023-01-26T06:38:04.112Z,55.20
2023-01-26T06:40:31.622Z,55.58
2023-01-26T06:42:59.061Z,55.33
2023-01-26T06:45:27.076Z,55.06
2023-01-26T06:47:55.293Z,54.92
2023-01-26T06:50:26.437Z,55.33
2023-01-26T06:52:56.687Z,55.50
2023-01-26T06:55:35.060Z,55.25
2023-01-26T06:58:05.989Z,54.98
2023-01-26T07:00:33.688Z,54.85
2023-01-26T07:03:01.232Z,54.46
2023-01-26T07:05:28.898Z,54.52
2023-01-26T07:07:56.292Z,54.49
2023-01-26T07:10:23.680Z,54.02
2023-01-26T07:12:51.452Z,54.42
2023-01-26T07:15:18.872Z,54.64
2023-01-26T07:17:46.296Z,54.45
2023-01-26T07:20:14.523Z,54.06
2023-01-26T07:22:41.946Z,54.03
2023-01-26T07:25:09.439Z,54.03
2023-01-26T07:27:37.091Z,53.89
2023-01-26T07:30:05.405Z,54.00
2023-01-26T07:32:32.769Z,53.79
2023-01-26T07:35:00.484Z,54.07
2023-01-26T07:37:29.030Z,53.92
2023-01-26T07:39:56.737Z,63.63
2023-01-26T07:42:24.391Z,58.74
2023-01-26T07:44:56.803Z,56.01
2023-01-26T07:47:24.474Z,54.36
2023-01-26T07:49:51.893Z,53.27
2023-01-26T07:52:19.338Z,53.37
2023-01-26T07:54:46.965Z,52.27
2023-01-26T07:57:14.602Z,52.68
2023-01-26T07:59:42.388Z,53.05
2023-01-26T08:02:10.587Z,53.07
2023-01-26T08:04:38.224Z,53.03
2023-01-26T08:07:05.660Z,52.71
2023-01-26T08:09:33.164Z,52.59
2023-01-26T08:12:01.457Z,52.61
2023-01-26T08:14:38.361Z,52.54
2023-01-26T08:17:13.753Z,52.47
2023-01-26T08:19:41.131Z,52.24
2023-01-26T08:22:08.682Z,52.40
2023-01-26T08:24:36.348Z,52.31
2023-01-26T08:27:03.852Z,52.56
2023-01-26T08:29:31.276Z,52.38
2023-01-26T08:31:58.987Z,52.35
2023-01-26T08:34:26.634Z,52.69
2023-01-26T08:36:53.984Z,52.67
2023-01-26T08:39:21.600Z,52.01
2023-01-26T08:41:49.072Z,52.21
2023-01-26T08:44:16.671Z,51.93
2023-01-26T08:46:44.657Z,52.21
2023-01-26T08:49:12.089Z,51.89
2023-01-26T08:51:39.434Z,52.05
2023-01-26T08:54:08.287Z,51.88
2023-01-26T08:56:35.924Z,50.68
2023-01-26T08:59:03.287Z,50.82
2023-01-26T09:01:31.080Z,50.96
2023-01-26T09:03:58.583Z,50.70
2023-01-26T09:06:27.676Z,51.25
2023-01-26T09:08:55.310Z,51.16
2023-01-26T09:11:22.905Z,51.06
2023-01-26T09:13:56.595Z,50.80
2023-01-26T09:16:24.919Z,50.44
2023-01-26T09:18:53.592Z,50.19
2023-01-26T09:21:21.982Z,50.02
2023-01-26T09:23:50.070Z,50.48
2023-01-26T09:26:17.546Z,51.04
2023-01-26T09:28:44.982Z,50.81
2023-01-26T09:31:12.785Z,50.70
2023-01-26T09:33:40.439Z,50.43
2023-01-26T09:36:10.119Z,50.53
2023-01-26T09:38:38.776Z,50.00
2023-01-26T09:41:18.221Z,50.91
2023-01-26T09:43:57.768Z,50.69
2023-01-26T09:46:32.705Z,50.93
2023-01-26T09:49:11.608Z,50.58
2023-01-26T09:52:00.586Z,50.55
2023-01-26T09:54:32.760Z,50.12
2023-01-26T09:57:13.618Z,50.64
2023-01-26T09:59:51.339Z,50.68
2023-01-26T10:02:46.973Z,50.82
2023-01-26T10:05:21.712Z,50.69
2023-01-26T10:07:49.063Z,50.25
2023-01-26T10:10:22.535Z,50.58
2023-01-26T10:12:51.710Z,50.76
2023-01-26T10:15:30.922Z,50.78
2023-01-26T10:18:02.105Z,50.12
2023-01-26T10:20:33.186Z,50.52
2023-01-26T10:23:12.578Z,50.17
2023-01-26T10:25:41.597Z,49.83
2023-01-26T10:28:14.554Z,50.31
2023-01-26T10:30:43.757Z,49.99
2023-01-26T10:33:26.720Z,50.04
2023-01-26T10:35:54.600Z,50.35
2023-01-26T10:38:33.980Z,50.71
2023-01-26T10:41:04.036Z,50.09
2023-01-26T10:43:36.205Z,50.83
2023-01-26T10:46:04.712Z,50.12
2023-01-26T10:48:32.481Z,49.56
2023-01-26T10:51:15.440Z,49.99
2023-01-26T10:53:43.055Z,50.46
2023-01-26T10:56:17.179Z,50.55
2023-01-26T10:58:48.434Z,49.97
2023-01-26T11:01:18.849Z,49.73
2023-01-26T11:04:04.614Z,49.74
2023-01-26T11:06:32.496Z,49.71
2023-01-26T11:09:15.363Z,50.09
2023-01-26T11:11:44.799Z,49.55
2023-01-26T11:14:16.730Z,50.14
2023-01-26T11:16:47.798Z,50.60
2023-01-26T11:19:45.103Z,50.17
2023-01-26T11:22:19.489Z,49.88
2023-01-26T11:25:08.099Z,49.61
2023-01-26T11:28:00.519Z,49.39
2023-01-26T11:30:45.258Z,49.68
2023-01-26T11:33:35.603Z,50.08
2023-01-26T11:36:09.805Z,50.04
2023-01-26T11:38:43.107Z,49.70
2023-01-26T11:41:56.367Z,49.82
2023-01-26T11:44:42.336Z,49.65
2023-01-26T11:47:22.804Z,49.46
2023-01-26T11:57:50.353Z,49.79
2023-01-26T12:00:56.753Z,50.22
2023-01-26T12:03:53.437Z,50.10
2023-01-26T12:07:01.922Z,50.04
2023-01-26T12:10:10.166Z,49.34
2023-01-26T12:24:12.853Z,49.35
2023-01-26T12:35:28.304Z,49.76
2023-01-26T12:38:52.931Z,49.71
2023-01-26T12:42:12.407Z,48.75
2023-01-26T12:53:10.019Z,49.78
2023-01-26T13:11:55.368Z,49.53
2023-01-26T13:15:06.323Z,49.73
2023-01-26T13:22:16.595Z,49.09
2023-01-26T13:25:39.141Z,50.12
2023-01-26T13:32:29.850Z,49.89
2023-01-26T13:36:13.958Z,50.15
2023-01-26T13:40:04.527Z,50.47
2023-01-26T13:43:01.842Z,49.73
2023-01-26T13:47:03.208Z,50.44
2023-01-26T13:50:05.340Z,50.34
2023-01-26T13:57:22.809Z,50.57
2023-01-26T14:03:34.329Z,51.08
2023-01-26T14:06:42.487Z,51.19
2023-01-26T14:16:19.044Z,51.45
2023-01-26T14:19:42.570Z,51.48
2023-01-26T14:33:57.762Z,51.99
2023-01-26T14:37:23.669Z,51.85
2023-01-26T14:43:59.545Z,51.81
2023-01-26T14:47:17.510Z,51.87
2023-01-26T14:54:20.129Z,53.37
2023-01-26T15:01:27.280Z,53.14
2023-01-26T15:04:43.946Z,53.79
2023-01-26T15:28:41.952Z,55.01
2023-01-26T15:35:16.768Z,55.23
2023-01-26T15:38:03.984Z,55.44
2023-01-26T15:52:27.472Z,55.25
2023-01-26T15:55:41.762Z,55.68
2023-01-26T16:02:07.286Z,55.56
2023-01-26T16:05:15.075Z,53.98
2023-01-26T16:11:28.896Z,54.44
2023-01-26T16:14:34.992Z,54.39
2023-01-26T16:17:39.960Z,54.30
2023-01-26T16:21:41.914Z,53.92
2023-01-26T16:25:27.316Z,53.87
2023-01-26T16:28:58.080Z,53.13
2023-01-26T16:32:20.699Z,53.54
2023-01-26T16:35:17.875Z,53.30
2023-01-26T16:45:54.604Z,52.79
2023-01-26T16:58:59.127Z,52.35
2023-01-26T17:02:22.333Z,51.82
2023-01-26T17:06:27.465Z,51.10
2023-01-26T17:09:29.669Z,51.26
2023-01-26T17:12:35.012Z,51.15
2023-01-26T17:15:57.703Z,50.37
2023-01-26T17:19:08.991Z,50.44
2023-01-26T17:22:15.300Z,49.20
2023-01-26T17:25:22.869Z,48.56
2023-01-26T17:28:27.736Z,48.72
2023-01-26T17:42:21.335Z,48.01
2023-01-26T17:45:27.785Z,47.69
2023-01-26T17:48:51.302Z,48.72
2023-01-26T17:51:40.304Z,49.43
2023-01-26T18:04:09.386Z,49.44
2023-01-26T18:07:33.834Z,49.17
2023-01-26T18:16:58.102Z,48.97
2023-01-26T18:19:25.842Z,48.89
2023-01-26T18:21:53.285Z,49.05
2023-01-26T18:24:20.733Z,49.27
2023-01-26T18:27:27.976Z,49.75
2023-01-26T18:30:52.194Z,49.51
2023-01-26T18:43:48.369Z,50.57
2023-01-26T18:46:16.285Z,49.50
2023-01-26T18:48:44.148Z,49.59
2023-01-26T18:51:11.743Z,49.58
2023-01-26T18:53:40.205Z,48.87
2023-01-26T18:56:10.388Z,48.94
2023-01-26T18:58:39.378Z,49.33
2023-01-26T19:01:10.714Z,49.22
2023-01-26T19:03:41.692Z,49.08
2023-01-26T19:06:10.002Z,48.77
2023-01-26T19:08:38.177Z,47.98
2023-01-26T19:11:07.009Z,48.79
2023-01-26T19:13:35.376Z,49.46
2023-01-26T19:16:03.345Z,49.32
2023-01-26T19:18:30.747Z,49.33
2023-01-26T19:21:00.238Z,49.03
2023-01-26T19:23:28.077Z,48.80
2023-01-26T19:25:56.227Z,49.83
2023-01-26T19:28:25.265Z,49.09
2023-01-26T19:31:02.310Z,48.12
2023-01-26T19:33:31.744Z,48.76
2023-01-26T19:36:02.866Z,48.12
2023-01-26T19:38:33.302Z,48.70
2023-01-26T19:41:02.443Z,47.59
2023-01-26T19:43:30.356Z,47.63
2023-01-26T19:45:57.977Z,47.02
2023-01-26T19:48:26.863Z,47.74
2023-01-26T19:50:59.915Z,48.15
2023-01-26T19:53:28.189Z,48.43
2023-01-26T19:55:56.608Z,48.24
2023-01-26T19:58:24.372Z,48.48
2023-01-26T20:00:58.374Z,48.50
2023-01-26T20:03:26.609Z,48.11
2023-01-26T20:05:56.699Z,48.83
2023-01-26T20:08:26.464Z,49.25
2023-01-26T20:10:54.492Z,48.52
2023-01-26T20:13:24.648Z,48.85
2023-01-26T20:15:58.392Z,49.01
2023-01-26T20:18:26.767Z,55.17
2023-01-26T20:20:55.877Z,49.41
2023-01-26T20:23:23.829Z,49.48
2023-01-26T20:25:54.282Z,48.36
2023-01-26T20:28:23.101Z,49.17
2023-01-26T20:30:55.532Z,49.51
2023-01-26T20:33:23.033Z,49.59
2023-01-26T20:35:52.057Z,49.63
2023-01-26T20:38:19.780Z,49.77
2023-01-26T20:40:47.366Z,49.23
2023-01-26T20:43:15.917Z,49.61
2023-01-26T20:45:44.227Z,50.03
2023-01-26T20:48:12.244Z,50.12
2023-01-26T20:50:41.579Z,50.86
2023-01-26T20:53:11.631Z,50.34
2023-01-26T20:55:39.345Z,49.52
2023-01-26T20:58:07.151Z,49.47
2023-01-26T21:00:36.076Z,50.04
2023-01-26T21:03:03.596Z,50.13
2023-01-26T21:05:31.115Z,50.33
2023-01-26T21:07:58.800Z,50.49
2023-01-26T21:10:26.384Z,50.51
2023-01-26T21:12:53.799Z,51.03
2023-01-26T21:15:21.497Z,50.96
2023-01-26T21:17:48.915Z,50.79
2023-01-26T21:20:16.477Z,50.08
2023-01-26T21:22:44.328Z,50.45
2023-01-26T21:25:12.276Z,51.16
2023-01-26T21:27:39.657Z,59.30
2023-01-26T21:30:07.822Z,52.26
2023-01-26T21:32:35.286Z,51.12
2023-01-26T21:35:02.676Z,51.81
2023-01-26T21:37:30.369Z,51.00
2023-01-26T21:39:57.977Z,51.33
2023-01-26T21:42:25.417Z,51.50
2023-01-26T21:45:12.485Z,51.31
2023-01-26T21:47:41.070Z,50.82
2023-01-26T21:50:09.388Z,50.82
2023-01-26T21:52:55.318Z,51.40
2023-01-26T21:55:23.038Z,51.65
2023-01-26T21:58:08.783Z,51.48
2023-01-26T22:00:36.588Z,51.74
2023-01-26T22:03:04.233Z,52.22
2023-01-26T22:05:31.627Z,52.35
2023-01-26T22:07:59.024Z,52.81
2023-01-26T22:10:26.666Z,52.53
2023-01-26T22:12:54.028Z,52.42
2023-01-26T22:15:21.428Z,51.92
2023-01-26T22:17:50.471Z,52.14
2023-01-26T22:20:17.919Z,52.35
2023-01-26T22:22:45.298Z,52.84
2023-01-26T22:25:13.078Z,53.32
2023-01-26T22:27:41.015Z,53.68
2023-01-26T22:30:09.216Z,53.55
2023-01-26T22:32:36.885Z,53.33
2023-01-26T22:35:04.539Z,53.69
2023-01-26T22:37:31.963Z,54.16
2023-01-26T22:39:59.641Z,53.67
2023-01-26T22:42:27.051Z,53.75
2023-01-26T22:44:54.652Z,54.00
2023-01-26T22:47:22.415Z,53.89
2023-01-26T22:49:49.793Z,53.57
2023-01-26T22:52:17.177Z,53.83
2023-01-26T22:54:44.891Z,53.53
2023-01-26T22:57:12.259Z,53.11
2023-01-26T22:59:39.765Z,53.09
2023-01-26T23:02:07.641Z,52.85
2023-01-26T23:04:35.031Z,52.82
2023-01-26T23:07:02.393Z,52.53
2023-01-26T23:09:30.175Z,52.14
2023-01-26T23:12:01.513Z,52.05
2023-01-26T23:14:29.846Z,52.44
2023-01-26T23:16:58.161Z,52.26
2023-01-26T23:19:25.707Z,52.66
2023-01-26T23:21:53.313Z,52.89
2023-01-26T23:24:21.094Z,52.74
2023-01-26T23:26:48.452Z,52.82
2023-01-26T23:29:15.816Z,52.65
2023-01-26T23:31:43.742Z,53.02
2023-01-26T23:34:11.182Z,53.18
2023-01-26T23:36:38.676Z,53.00
2023-01-26T23:39:06.393Z,53.04
2023-01-26T23:41:33.771Z,53.23
2023-01-26T23:44:01.261Z,52.85
2023-01-26T23:46:29.142Z,52.80
2023-01-26T23:48:56.605Z,52.70
2023-01-26T23:51:24.034Z,53.30
2023-01-26T23:53:51.747Z,52.98
2023-01-26T23:56:19.227Z,53.22
2023-01-26T23:58:46.620Z,53.43
